Time;durP1;ratioP1;P1;durP2;ratioP2;P2;SDS_P1;SDS_P2;PMS_P1;PMS_P2;Temp;Humidity;BMP_temperature;BMP_pressure;BME280_temperature;BME280_humidity;BME280_pressure;Samples;Min_cycle;Max_cycle;Signal;HPM_P1;HPM_P2
2022/10/31 00:00:48;;;;;;;17.33;12.10;;;13.50;99.90;;;;;;5112780;28;20442;-89
2022/10/31 00:03:15;;;;;;;16.73;10.50;;;13.50;99.90;;;;;;5116335;28;20430;-88
2022/10/31 00:05:43;;;;;;;16.93;10.73;;;13.40;99.90;;;;;;5109807;28;20431;-90
2022/10/31 00:08:10;;;;;;;15.80;10.93;;;13.50;99.90;;;;;;5100033;28;20475;-90
2022/10/31 00:10:39;;;;;;;16.43;12.00;;;13.50;99.90;;;;;;5098710;28;20451;-89
2022/10/31 00:13:06;;;;;;;15.80;11.37;;;13.40;99.90;;;;;;5118040;28;20454;-89
2022/10/31 00:15:35;;;;;;;16.67;11.97;;;13.50;99.90;;;;;;5120883;28;20498;-90
2022/10/31 00:18:02;;;;;;;16.83;12.53;;;13.40;99.90;;;;;;5121009;28;20535;-89
2022/10/31 00:20:29;;;;;;;15.20;11.50;;;13.40;99.90;;;;;;5117055;28;20486;-90
2022/10/31 00:22:59;;;;;;;15.00;11.00;;;13.30;99.90;;;;;;5097753;28;20449;-89
2022/10/31 00:25:26;;;;;;;17.60;11.60;;;13.30;99.90;;;;;;5097968;28;20453;-90
2022/10/31 00:27:53;;;;;;;19.20;10.90;;;13.20;99.90;;;;;;5097581;28;20482;-90
2022/10/31 00:30:20;;;;;;;18.83;11.53;;;13.20;99.90;;;;;;5117044;28;20494;-90
2022/10/31 00:32:48;;;;;;;14.63;12.33;;;13.20;99.90;;;;;;5116516;28;20453;-90
2022/10/31 00:35:15;;;;;;;14.33;11.60;;;13.20;99.90;;;;;;5100915;28;20450;-89
2022/10/31 00:37:42;;;;;;;17.70;13.20;;;13.20;99.90;;;;;;5101270;28;20566;-90
2022/10/31 00:40:10;;;;;;;12.80;11.10;;;13.20;99.90;;;;;;5097168;28;20445;-89
2022/10/31 00:42:37;;;;;;;15.17;10.90;;;13.20;99.90;;;;;;5096900;28;20446;-89
2022/10/31 00:45:04;;;;;;;14.10;10.80;;;13.20;99.90;;;;;;5096719;28;20443;-90
2022/10/31 00:47:31;;;;;;;12.80;11.43;;;13.20;99.90;;;;;;5100153;28;20866;-89
2022/10/31 00:49:59;;;;;;;20.23;11.30;;;13.10;99.90;;;;;;5097819;28;20504;-90
2022/10/31 00:52:26;;;;;;;14.40;11.23;;;13.00;99.90;;;;;;5097049;28;20455;-89
2022/10/31 00:54:52;;;;;;;19.80;12.23;;;13.00;99.90;;;;;;5094985;28;20457;-90
2022/10/31 00:57:19;;;;;;;15.30;12.40;;;13.00;99.90;;;;;;5100628;28;20985;-90
2022/10/31 00:59:46;;;;;;;16.17;11.70;;;12.90;99.90;;;;;;5107010;28;20447;-88
2022/10/31 01:02:13;;;;;;;19.67;13.50;;;12.90;99.90;;;;;;5096518;28;20434;-90
2022/10/31 01:04:40;;;;;;;17.87;12.80;;;12.90;99.90;;;;;;5096881;28;20447;-89
2022/10/31 01:07:08;;;;;;;13.17;11.80;;;12.90;99.90;;;;;;5096067;28;20475;-89
2022/10/31 01:09:35;;;;;;;19.50;12.03;;;13.00;99.90;;;;;;5096516;28;20571;-90
2022/10/31 01:12:02;;;;;;;18.43;12.10;;;13.00;99.90;;;;;;5096155;28;20522;-90
2022/10/31 01:14:29;;;;;;;21.43;11.30;;;13.00;99.90;;;;;;5096690;28;20482;-90
2022/10/31 01:16:55;;;;;;;16.50;13.93;;;13.00;99.90;;;;;;5096754;28;20530;-89
2022/10/31 01:19:22;;;;;;;13.50;10.60;;;13.00;99.90;;;;;;5114750;28;20533;-89
2022/10/31 01:21:49;;;;;;;15.97;10.77;;;13.00;99.90;;;;;;5114179;28;20455;-89
2022/10/31 01:24:17;;;;;;;16.53;11.90;;;13.00;99.90;;;;;;5097671;28;20466;-90
2022/10/31 01:26:44;;;;;;;15.60;10.97;;;12.90;99.90;;;;;;5095924;28;20474;-90
2022/10/31 01:29:11;;;;;;;15.63;11.60;;;12.90;99.90;;;;;;5096199;28;20594;-90
2022/10/31 01:31:40;;;;;;;15.63;12.33;;;12.90;99.90;;;;;;5102615;28;20522;-90
2022/10/31 01:34:07;;;;;;;14.87;11.43;;;12.90;99.90;;;;;;5102716;28;20813;-90
2022/10/31 01:36:36;;;;;;;11.30;10.10;;;12.90;99.90;;;;;;5096981;28;20806;-90
2022/10/31 01:39:05;;;;;;;14.30;10.17;;;12.80;99.90;;;;;;5095488;28;20975;-90
2022/10/31 01:41:36;;;;;;;13.57;10.97;;;12.80;99.90;;;;;;5095390;28;20431;-89
2022/10/31 01:44:24;;;;;;;19.93;10.93;;;12.80;99.90;;;;;;5095487;28;20443;-90
2022/10/31 01:46:57;;;;;;;15.03;11.60;;;12.80;99.90;;;;;;5100254;28;20474;-88
2022/10/31 01:49:30;;;;;;;12.77;10.67;;;12.80;99.90;;;;;;5106302;28;20467;-89
2022/10/31 01:52:02;;;;;;;14.03;10.53;;;12.70;99.90;;;;;;5101542;28;20472;-88
2022/10/31 01:54:36;;;;;;;10.87;9.80;;;12.70;99.90;;;;;;5101763;28;20451;-89
2022/10/31 01:57:06;;;;;;;17.03;10.07;;;12.80;99.90;;;;;;5095696;28;20477;-89
2022/10/31 01:59:40;;;;;;;17.10;10.63;;;12.80;99.90;;;;;;5095820;28;20451;-89
2022/10/31 02:02:08;;;;;;;13.60;10.67;;;12.80;99.90;;;;;;5095391;28;20518;-89
2022/10/31 02:04:36;;;;;;;15.80;10.63;;;12.80;99.90;;;;;;5096554;28;20451;-90
2022/10/31 02:07:07;;;;;;;15.73;10.80;;;12.70;99.90;;;;;;5097936;28;20478;-89
2022/10/31 02:09:35;;;;;;;13.20;10.80;;;12.70;99.90;;;;;;5110492;28;20439;-89
2022/10/31 02:12:02;;;;;;;15.23;10.37;;;12.70;99.90;;;;;;5107896;28;20506;-88
2022/10/31 02:14:31;;;;;;;15.97;11.33;;;12.70;99.90;;;;;;5100024;28;20451;-90
2022/10/31 02:16:58;;;;;;;12.00;10.30;;;12.70;99.90;;;;;;5096995;28;20443;-90
2022/10/31 02:19:32;;;;;;;12.87;9.63;;;12.70;99.90;;;;;;5099067;28;20467;-90
2022/10/31 02:22:09;;;;;;;11.97;10.13;;;12.70;99.90;;;;;;5100362;28;20555;-89
2022/10/31 02:24:47;;;;;;;13.40;10.93;;;12.70;99.90;;;;;;5100667;28;21204;-90
2022/10/31 02:27:29;;;;;;;15.73;9.07;;;12.70;99.90;;;;;;5112663;28;20467;-88
2022/10/31 02:30:10;;;;;;;14.60;9.70;;;12.70;99.90;;;;;;5122438;28;20446;-89
2022/10/31 02:32:52;;;;;;;13.57;10.50;;;12.70;99.90;;;;;;5117697;28;20430;-88
2022/10/31 02:35:31;;;;;;;12.33;9.27;;;12.60;99.90;;;;;;5117813;28;20806;-89
2022/10/31 02:38:04;;;;;;;11.57;8.80;;;12.60;99.90;;;;;;5118101;28;20468;-88
2022/10/31 02:40:37;;;;;;;10.40;9.30;;;12.60;99.90;;;;;;5120181;28;20488;-89
2022/10/31 02:43:16;;;;;;;14.47;9.73;;;12.60;99.90;;;;;;5119557;28;20450;-89
2022/10/31 02:45:48;;;;;;;19.03;10.47;;;12.50;99.90;;;;;;5118019;28;20524;-88
2022/10/31 02:48:22;;;;;;;11.43;9.30;;;12.50;99.90;;;;;;5118046;28;20564;-89
2022/10/31 02:50:56;;;;;;;15.53;9.97;;;12.50;99.90;;;;;;5120524;28;20974;-90
2022/10/31 02:53:23;;;;;;;11.10;8.77;;;12.50;99.90;;;;;;5138811;28;20429;-90
2022/10/31 02:55:59;;;;;;;14.10;9.03;;;12.50;99.90;;;;;;5138846;28;20449;-89
2022/10/31 02:58:32;;;;;;;13.10;8.60;;;12.50;99.90;;;;;;5137840;28;20463;-88
2022/10/31 03:01:24;;;;;;;10.57;9.33;;;12.50;99.90;;;;;;5127400;28;20665;-90
2022/10/31 03:04:05;;;;;;;11.90;9.50;;;12.40;99.90;;;;;;5122553;28;20430;-89
2022/10/31 03:06:36;;;;;;;9.97;8.97;;;12.40;99.90;;;;;;5122401;28;20537;-89
2022/10/31 03:09:12;;;;;;;12.87;10.00;;;12.40;99.90;;;;;;5123279;28;20510;-89
2022/10/31 03:11:45;;;;;;;10.73;8.73;;;12.40;99.90;;;;;;5122184;28;20525;-88
2022/10/31 03:14:18;;;;;;;13.60;9.73;;;12.40;99.90;;;;;;5120859;28;20422;-89
2022/10/31 03:16:48;;;;;;;9.37;8.13;;;12.40;99.90;;;;;;5119922;28;20422;-88
2022/10/31 03:19:20;;;;;;;13.47;9.70;;;12.30;99.90;;;;;;5122631;28;20470;-89
2022/10/31 03:21:51;;;;;;;9.33;8.43;;;12.30;99.90;;;;;;5123342;28;20452;-88
2022/10/31 03:24:20;;;;;;;12.47;8.90;;;12.30;99.90;;;;;;5124192;28;20440;-87
2022/10/31 03:26:50;;;;;;;13.60;8.70;;;12.30;99.90;;;;;;5127868;28;20474;-89
2022/10/31 03:29:21;;;;;;;11.40;8.87;;;12.20;99.90;;;;;;5120245;28;20458;-89
2022/10/31 03:31:52;;;;;;;14.13;10.17;;;12.20;99.90;;;;;;5126643;28;20435;-89
2022/10/31 03:34:23;;;;;;;18.33;10.20;;;12.20;99.90;;;;;;5138204;28;20449;-88
2022/10/31 03:36:55;;;;;;;13.97;11.80;;;12.10;99.90;;;;;;5137715;28;20446;-89
2022/10/31 03:39:23;;;;;;;10.30;8.67;;;12.10;99.90;;;;;;5129905;28;20458;-89
2022/10/31 03:41:55;;;;;;;9.93;8.90;;;12.10;99.90;;;;;;5118878;28;20454;-89
2022/10/31 03:44:24;;;;;;;10.27;9.27;;;12.10;99.90;;;;;;5118185;28;20453;-89
2022/10/31 03:46:51;;;;;;;12.00;9.10;;;12.20;99.90;;;;;;5117516;28;20442;-89
2022/10/31 03:49:20;;;;;;;10.60;8.37;;;12.20;99.90;;;;;;5118080;28;20490;-89
2022/10/31 03:51:51;;;;;;;15.73;9.13;;;12.10;99.90;;;;;;5117777;28;20449;-89
2022/10/31 03:54:25;;;;;;;13.10;9.50;;;12.20;99.90;;;;;;5127196;28;20446;-89
2022/10/31 03:56:56;;;;;;;11.53;9.30;;;12.10;99.90;;;;;;5133373;28;20510;-88
2022/10/31 03:59:27;;;;;;;12.70;9.10;;;12.10;99.90;;;;;;5124166;28;20454;-89
2022/10/31 04:01:59;;;;;;;13.93;9.43;;;12.10;99.90;;;;;;5119328;28;20921;-88
2022/10/31 04:04:28;;;;;;;12.90;8.70;;;12.10;99.90;;;;;;5126482;28;20458;-88
2022/10/31 04:06:57;;;;;;;11.67;9.10;;;12.10;99.90;;;;;;5133060;28;20446;-89
2022/10/31 04:09:26;;;;;;;14.43;9.43;;;12.00;99.90;;;;;;5119184;28;20492;-89
2022/10/31 04:11:57;;;;;;;18.23;9.53;;;12.00;99.90;;;;;;5117907;28;20456;-89
2022/10/31 04:14:27;;;;;;;13.47;10.80;;;12.00;99.90;;;;;;5118053;28;20446;-88
2022/10/31 04:16:55;;;;;;;19.17;9.80;;;12.00;99.90;;;;;;5117690;28;20438;-89
2022/10/31 04:19:22;;;;;;;17.57;11.30;;;12.00;99.90;;;;;;5116857;28;20827;-90
2022/10/31 04:21:50;;;;;;;14.20;9.57;;;12.00;99.90;;;;;;5115166;28;20458;-90
2022/10/31 04:24:18;;;;;;;15.50;12.13;;;12.00;99.90;;;;;;5116319;28;20448;-89
2022/10/31 04:26:45;;;;;;;10.50;8.70;;;12.00;99.90;;;;;;5123693;28;21037;-89
2022/10/31 04:29:11;;;;;;;15.07;9.93;;;11.90;99.90;;;;;;5116632;28;20491;-90
2022/10/31 04:31:38;;;;;;;15.33;9.67;;;11.90;99.90;;;;;;5117891;28;20454;-89
2022/10/31 04:34:05;;;;;;;14.10;11.13;;;11.90;99.90;;;;;;5117242;28;20449;-89
2022/10/31 04:36:32;;;;;;;13.77;9.83;;;11.80;99.90;;;;;;5117457;28;20946;-87
2022/10/31 04:39:00;;;;;;;13.63;10.30;;;11.80;99.90;;;;;;5117744;28;20906;-87
2022/10/31 04:41:29;;;;;;;13.70;9.60;;;11.70;99.90;;;;;;5137287;28;20497;-87
2022/10/31 04:43:55;;;;;;;13.73;10.27;;;11.70;99.90;;;;;;5141015;28;20446;-89
2022/10/31 04:46:22;;;;;;;11.00;9.00;;;11.70;99.90;;;;;;5123918;28;20434;-87
2022/10/31 04:48:49;;;;;;;11.80;9.10;;;11.70;99.90;;;;;;5120092;28;20493;-88
2022/10/31 04:51:16;;;;;;;15.60;10.97;;;11.70;99.90;;;;;;5116282;28;20468;-87
2022/10/31 04:53:43;;;;;;;16.00;9.20;;;11.60;99.90;;;;;;5116482;28;20442;-89
2022/10/31 04:56:11;;;;;;;13.13;10.13;;;11.60;99.90;;;;;;5119490;28;20800;-89
2022/10/31 04:58:38;;;;;;;12.57;10.47;;;11.60;99.90;;;;;;5118788;28;20472;-89
2022/10/31 05:01:05;;;;;;;14.20;9.70;;;11.60;99.90;;;;;;5117967;28;20442;-88
2022/10/31 05:03:32;;;;;;;12.97;9.50;;;11.60;99.90;;;;;;5116429;28;20938;-89
2022/10/31 05:05:58;;;;;;;11.40;9.70;;;11.60;99.90;;;;;;5116426;28;20930;-89
2022/10/31 05:08:25;;;;;;;13.33;8.90;;;11.50;99.90;;;;;;5116062;28;20485;-88
2022/10/31 05:10:52;;;;;;;11.57;8.53;;;11.50;99.90;;;;;;5117080;28;20469;-88
2022/10/31 05:13:20;;;;;;;13.80;10.23;;;11.50;99.90;;;;;;5117235;28;20448;-88
2022/10/31 05:15:47;;;;;;;13.30;9.00;;;11.50;99.90;;;;;;5116222;28;20474;-88
2022/10/31 05:18:14;;;;;;;11.40;8.13;;;11.50;99.90;;;;;;5116313;28;20832;-88
2022/10/31 05:20:41;;;;;;;11.37;8.20;;;11.50;99.90;;;;;;5117868;28;20457;-88
2022/10/31 05:23:07;;;;;;;13.10;9.27;;;11.40;99.90;;;;;;5116774;28;20453;-88
2022/10/31 05:25:34;;;;;;;11.60;8.10;;;11.40;99.90;;;;;;5116476;28;20468;-88
2022/10/31 05:28:01;;;;;;;12.70;8.80;;;11.40;99.90;;;;;;5115939;28;20485;-88
2022/10/31 05:30:31;;;;;;;13.27;9.20;;;11.40;99.90;;;;;;5116275;28;20438;-88
2022/10/31 05:32:58;;;;;;;14.10;8.63;;;11.40;99.90;;;;;;5116148;28;20429;-89
2022/10/31 05:35:27;;;;;;;9.87;8.27;;;11.40;99.90;;;;;;5116291;28;20452;-88
2022/10/31 05:37:54;;;;;;;10.60;7.50;;;11.40;99.90;;;;;;5120157;28;21004;-88
2022/10/31 05:40:22;;;;;;;9.23;8.30;;;11.40;99.90;;;;;;5116221;28;20442;-88
2022/10/31 05:42:52;;;;;;;9.40;7.20;;;11.40;99.90;;;;;;5125883;28;20439;-88
2022/10/31 05:45:19;;;;;;;11.13;8.53;;;11.40;99.90;;;;;;5137657;28;20434;-88
2022/10/31 05:47:52;;;;;;;11.33;8.13;;;11.40;99.90;;;;;;5137890;28;20474;-88
2022/10/31 05:50:19;;;;;;;9.50;7.60;;;11.40;99.90;;;;;;5137864;28;20411;-87
2022/10/31 05:52:47;;;;;;;12.00;8.20;;;11.40;99.90;;;;;;5139573;28;20520;-89
2022/10/31 05:55:13;;;;;;;13.70;9.00;;;11.40;99.90;;;;;;5136666;28;20450;-88
2022/10/31 05:57:41;;;;;;;11.90;7.20;;;11.40;99.90;;;;;;5131111;28;20473;-89
2022/10/31 06:00:11;;;;;;;11.20;7.87;;;11.30;99.90;;;;;;5116564;28;20450;-88
2022/10/31 06:02:37;;;;;;;10.37;7.83;;;11.30;99.90;;;;;;5117946;28;20426;-88
2022/10/31 06:05:06;;;;;;;16.13;8.90;;;11.30;99.90;;;;;;5115830;28;20430;-89
2022/10/31 06:07:35;;;;;;;14.07;9.33;;;11.40;99.90;;;;;;5146076;22;20470;-93
2022/10/31 06:10:03;;;;;;;14.07;8.30;;;11.40;99.90;;;;;;5110836;28;20474;-92
2022/10/31 06:12:30;;;;;;;10.13;8.23;;;11.40;99.90;;;;;;5094991;28;20475;-92
2022/10/31 06:14:57;;;;;;;13.20;8.40;;;11.40;99.90;;;;;;5083696;28;20480;-93
2022/10/31 06:17:24;;;;;;;8.67;7.77;;;11.40;99.90;;;;;;5087152;28;20479;-91
2022/10/31 06:19:51;;;;;;;12.53;7.40;;;11.40;99.90;;;;;;5112843;28;20454;-91
2022/10/31 06:22:19;;;;;;;15.20;9.00;;;11.50;99.90;;;;;;5119899;28;20423;-91
2022/10/31 06:24:46;;;;;;;9.83;7.93;;;11.50;99.90;;;;;;5113662;28;20466;-92
2022/10/31 06:27:13;;;;;;;11.63;7.80;;;11.50;99.90;;;;;;5110423;28;20450;-93
2022/10/31 06:29:40;;;;;;;10.93;9.23;;;11.50;99.90;;;;;;5108909;28;20585;-92
2022/10/31 06:32:10;;;;;;;8.57;7.70;;;11.40;99.90;;;;;;5105638;28;20478;-93
2022/10/31 06:34:37;;;;;;;18.60;8.10;;;11.40;99.90;;;;;;5105447;28;20455;-93
2022/10/31 06:37:04;;;;;;;10.90;7.97;;;11.40;99.90;;;;;;5104393;28;20759;-92
2022/10/31 06:39:32;;;;;;;11.67;8.57;;;11.40;99.90;;;;;;5108779;28;20998;-93
2022/10/31 06:41:59;;;;;;;11.47;9.37;;;11.40;99.90;;;;;;5117279;28;20459;-92
2022/10/31 06:44:26;;;;;;;14.63;9.40;;;11.40;99.90;;;;;;5117487;28;20506;-93
2022/10/31 06:46:53;;;;;;;9.47;8.40;;;11.40;99.90;;;;;;5114544;28;20495;-92
2022/10/31 06:49:20;;;;;;;13.03;8.50;;;11.40;99.90;;;;;;5113490;28;20665;-92
2022/10/31 06:51:52;;;;;;;9.20;7.53;;;11.40;99.90;;;;;;5114061;28;20470;-92
2022/10/31 06:54:21;;;;;;;14.30;8.80;;;11.50;99.90;;;;;;5119143;28;20439;-91
2022/10/31 06:56:50;;;;;;;12.63;9.77;;;11.50;99.90;;;;;;5118204;28;20425;-90
2022/10/31 06:59:17;;;;;;;9.43;7.90;;;11.50;99.90;;;;;;5118090;28;20454;-91
2022/10/31 07:01:44;;;;;;;11.27;7.93;;;11.60;99.90;;;;;;5118309;28;20431;-90
2022/10/31 07:04:17;;;;;;;10.33;8.27;;;11.60;99.90;;;;;;5118360;28;20427;-91
2022/10/31 07:06:47;;;;;;;11.07;7.70;;;11.60;99.90;;;;;;5119809;28;20431;-92
2022/10/31 07:09:14;;;;;;;12.93;8.27;;;11.60;99.90;;;;;;5120575;28;20492;-91
2022/10/31 07:11:45;;;;;;;13.80;7.93;;;11.70;99.90;;;;;;5120893;28;20431;-91
2022/10/31 07:14:14;;;;;;;11.50;7.57;;;11.60;99.90;;;;;;5115112;28;20478;-93
2022/10/31 07:16:41;;;;;;;9.33;7.90;;;11.70;99.90;;;;;;5118533;28;20435;-91
2022/10/31 07:19:12;;;;;;;11.33;9.13;;;11.80;99.90;;;;;;5123459;28;20458;-91
2022/10/31 07:21:39;;;;;;;8.87;7.00;;;11.80;99.90;;;;;;5126550;28;20410;-91
2022/10/31 07:24:06;;;;;;;9.57;7.70;;;11.80;99.90;;;;;;5125643;28;20441;-93
2022/10/31 07:26:33;;;;;;;10.70;7.80;;;11.90;99.90;;;;;;5118670;28;20426;-93
2022/10/31 07:29:09;;;;;;;11.33;8.70;;;12.00;99.90;;;;;;5115524;28;20462;-91
2022/10/31 07:31:46;;;;;;;10.50;7.30;;;12.00;99.90;;;;;;5116696;28;20445;-92
2022/10/31 07:34:13;;;;;;;9.03;8.13;;;12.10;99.90;;;;;;5119065;28;20430;-93
2022/10/31 07:36:44;;;;;;;9.20;7.60;;;12.10;99.90;;;;;;5117597;28;20497;-94
2022/10/31 07:39:11;;;;;;;10.97;8.10;;;12.20;99.90;;;;;;5124661;28;20450;-93
2022/10/31 07:41:43;;;;;;;9.93;8.27;;;12.20;99.90;;;;;;5122211;28;20422;-92
2022/10/31 07:46:58;;;;;;;8.63;7.67;;;12.30;99.90;;;;;;5313597;22;20687;-93
2022/10/31 08:21:02;;;;;;;9.43;8.43;;;14.20;99.90;;;;;;1309074;22;20854;-92
2022/10/31 08:26:16;;;;;;;18.00;9.03;;;14.50;99.90;;;;;;5328171;22;20472;-91
2022/10/31 08:28:46;;;;;;;12.90;8.37;;;14.60;99.90;;;;;;5130108;27;20504;-93
2022/10/31 08:31:26;;;;;;;9.23;7.90;;;14.80;99.90;;;;;;5121781;28;20492;-93
2022/10/31 08:33:55;;;;;;;10.17;7.57;;;14.80;99.90;;;;;;5336757;22;20434;-91
2022/10/31 08:40:06;;;;;;;12.40;8.60;;;14.80;99.90;;;;;;5102525;28;20387;-93
2022/10/31 08:42:39;;;;;;;10.77;7.73;;;14.90;99.90;;;;;;5102181;28;20401;-93
2022/10/31 08:45:19;;;;;;;11.63;7.47;;;14.90;99.90;;;;;;5100671;28;20456;-92
2022/10/31 08:47:51;;;;;;;9.87;8.30;;;15.10;99.90;;;;;;5100656;28;20457;-93
2022/10/31 08:50:20;;;;;;;11.67;8.13;;;15.30;99.90;;;;;;5100356;28;20475;-92
2022/10/31 08:52:49;;;;;;;9.53;8.20;;;15.40;99.90;;;;;;5100759;28;20483;-91
2022/10/31 08:55:24;;;;;;;11.33;7.00;;;15.50;99.90;;;;;;5100937;28;20434;-92
2022/10/31 08:57:57;;;;;;;14.50;8.20;;;15.60;99.90;;;;;;5100413;28;20484;-92
2022/10/31 09:00:24;;;;;;;10.30;8.10;;;15.60;99.90;;;;;;5100152;28;20456;-92
2022/10/31 09:02:57;;;;;;;13.03;8.33;;;15.60;99.90;;;;;;5099998;28;20440;-95
2022/10/31 09:05:43;;;;;;;9.50;8.50;;;15.50;99.90;;;;;;5099584;28;20440;-92
2022/10/31 09:08:15;;;;;;;9.20;7.40;;;15.50;99.90;;;;;;5099528;28;20482;-92
2022/10/31 09:10:42;;;;;;;9.83;7.07;;;15.60;99.90;;;;;;5098854;28;20497;-91
2022/10/31 09:13:14;;;;;;;18.83;7.50;;;15.80;99.90;;;;;;5079790;28;20495;-92
2022/10/31 09:15:43;;;;;;;10.90;8.10;;;16.00;99.90;;;;;;5078286;28;20503;-93
2022/10/31 09:18:12;;;;;;;10.67;7.93;;;16.20;99.90;;;;;;5079098;28;20461;-91
2022/10/31 09:20:42;;;;;;;10.10;7.77;;;16.40;99.90;;;;;;5078724;28;20471;-94
2022/10/31 09:23:15;;;;;;;9.40;8.00;;;16.50;99.90;;;;;;5078146;28;20441;-93
2022/10/31 09:25:42;;;;;;;15.83;8.50;;;16.70;99.90;;;;;;5078781;28;20427;-92
2022/10/31 09:28:13;;;;;;;13.70;8.60;;;16.70;99.90;;;;;;5078731;28;20537;-93
2022/10/31 09:30:42;;;;;;;11.33;7.93;;;16.80;99.90;;;;;;5079102;28;20542;-92
2022/10/31 09:35:44;;;;;;;9.63;8.57;;;16.70;99.90;;;;;;5083063;26;20470;-84
2022/10/31 09:38:14;;;;;;;13.40;8.23;;;16.70;99.90;;;;;;5092073;28;20523;-85
2022/10/31 09:40:44;;;;;;;11.57;7.87;;;16.70;99.90;;;;;;5087738;28;20978;-85
2022/10/31 09:43:21;;;;;;;14.03;8.23;;;16.80;99.90;;;;;;5064397;28;20455;-83
2022/10/31 09:46:02;;;;;;;14.60;8.63;;;16.90;99.90;;;;;;5068812;28;20451;-84
2022/10/31 09:48:48;;;;;;;14.93;8.30;;;16.90;99.90;;;;;;5066769;28;20460;-84
2022/10/31 09:51:19;;;;;;;9.53;8.43;;;16.80;99.90;;;;;;5066574;28;20433;-84
2022/10/31 09:53:53;;;;;;;12.03;8.00;;;16.60;99.90;;;;;;5073392;28;20524;-84
2022/10/31 09:56:23;;;;;;;14.13;7.97;;;16.70;99.90;;;;;;5074391;28;20439;-88
2022/10/31 09:58:55;;;;;;;17.23;9.40;;;16.50;99.90;;;;;;5068328;28;20485;-83
2022/10/31 10:01:33;;;;;;;12.20;8.40;;;16.80;99.90;;;;;;5061668;28;20453;-86
2022/10/31 10:04:03;;;;;;;10.53;8.23;;;17.00;99.90;;;;;;5058453;28;20452;-87
2022/10/31 10:06:34;;;;;;;9.53;8.37;;;17.10;99.90;;;;;;5058890;28;20445;-86
2022/10/31 10:09:02;;;;;;;12.03;9.57;;;17.20;99.90;;;;;;5057602;28;20460;-86
2022/10/31 10:11:41;;;;;;;11.07;9.77;;;17.70;99.90;;;;;;5069378;28;20444;-86
2022/10/31 10:14:23;;;;;;;14.93;8.80;;;17.90;99.90;;;;;;5084622;28;20448;-86
2022/10/31 10:17:05;;;;;;;10.13;8.70;;;18.30;99.90;;;;;;5088841;28;20458;-87
2022/10/31 10:19:45;;;;;;;18.33;8.17;;;18.80;99.90;;;;;;5081018;28;20509;-86
2022/10/31 10:22:21;;;;;;;12.10;8.20;;;19.10;99.90;;;;;;5080912;28;20443;-85
2022/10/31 10:25:01;;;;;;;9.70;8.60;;;19.40;99.90;;;;;;5077334;28;20455;-87
2022/10/31 10:27:41;;;;;;;9.80;7.80;;;19.70;99.90;;;;;;5076969;28;20447;-87
2022/10/31 10:30:17;;;;;;;13.77;8.10;;;19.60;99.90;;;;;;5078758;28;20488;-85
2022/10/31 10:32:50;;;;;;;10.50;7.57;;;19.60;99.90;;;;;;5078715;28;20452;-86
2022/10/31 10:35:24;;;;;;;9.57;6.90;;;19.70;99.90;;;;;;5075760;28;20823;-87
2022/10/31 10:37:53;;;;;;;12.70;7.27;;;19.50;99.90;;;;;;5074158;28;20591;-86
2022/10/31 10:40:25;;;;;;;11.43;7.87;;;19.30;99.90;;;;;;5074999;28;20841;-87
2022/10/31 10:49:12;;;;;;;15.63;8.60;;;19.10;99.90;;;;;;5011866;28;20441;-87
2022/10/31 10:51:45;;;;;;;10.33;7.43;;;19.20;99.90;;;;;;5013567;28;21021;-87
2022/10/31 10:54:37;;;;;;;21.20;10.13;;;19.40;99.90;;;;;;5048653;28;20538;-87
2022/10/31 10:57:17;;;;;;;12.40;9.07;;;19.10;99.90;;;;;;5075454;28;20448;-87
2022/10/31 10:59:44;;;;;;;9.70;8.70;;;18.90;99.90;;;;;;5068803;28;20471;-86
2022/10/31 11:02:18;;;;;;;12.00;9.27;;;18.80;99.90;;;;;;5075541;28;20475;-86
2022/10/31 11:04:48;;;;;;;15.27;11.67;;;18.50;99.90;;;;;;5062353;28;20490;-87
2022/10/31 11:07:15;;;;;;;14.57;9.27;;;18.50;99.90;;;;;;5054473;28;20934;-87
2022/10/31 11:09:42;;;;;;;12.20;9.40;;;18.40;99.90;;;;;;5055403;28;20491;-87
2022/10/31 11:12:16;;;;;;;13.60;8.90;;;18.40;99.90;;;;;;5057537;28;20945;-87
2022/10/31 11:14:48;;;;;;;16.33;9.90;;;18.40;99.90;;;;;;5056061;28;20445;-87
2022/10/31 11:17:26;;;;;;;11.80;9.37;;;18.50;99.90;;;;;;5061924;28;20436;-87
2022/10/31 11:20:02;;;;;;;11.47;8.70;;;18.50;99.90;;;;;;5085658;28;20442;-86
2022/10/31 11:22:29;;;;;;;9.23;7.90;;;18.50;99.90;;;;;;5079925;28;20443;-87
2022/10/31 11:24:55;;;;;;;11.20;8.13;;;18.60;99.90;;;;;;5077137;28;20451;-87
2022/10/31 11:27:26;;;;;;;8.43;7.53;;;18.90;99.90;;;;;;5076991;28;20447;-88
2022/10/31 11:29:53;;;;;;;8.10;7.30;;;20.00;99.90;;;;;;5088457;28;20482;-88
2022/10/31 11:32:22;;;;;;;9.80;7.73;;;20.60;99.90;;;;;;5090034;28;20843;-88
2022/10/31 11:34:52;;;;;;;11.10;7.37;;;20.90;99.50;;;;;;5078640;28;20463;-88
2022/10/31 11:37:22;;;;;;;14.97;8.03;;;21.30;98.80;;;;;;5091130;28;20515;-88
2022/10/31 11:39:53;;;;;;;8.20;7.07;;;21.40;99.10;;;;;;5080274;28;20436;-88
2022/10/31 11:42:25;;;;;;;12.23;7.27;;;21.40;98.50;;;;;;5093415;28;20431;-86
2022/10/31 11:44:53;;;;;;;15.20;8.40;;;21.10;98.70;;;;;;5094627;28;20454;-88
2022/10/31 11:47:28;;;;;;;10.27;6.33;;;21.20;99.40;;;;;;5083377;28;20543;-88
2022/10/31 11:49:55;;;;;;;10.30;6.97;;;21.60;98.00;;;;;;5075246;28;20479;-89
2022/10/31 11:52:25;;;;;;;10.00;7.10;;;21.90;97.70;;;;;;5078534;28;20455;-88
2022/10/31 11:54:55;;;;;;;9.60;7.30;;;22.20;97.10;;;;;;5079933;28;20440;-89
2022/10/31 11:57:26;;;;;;;11.27;8.03;;;22.30;96.40;;;;;;5073536;28;20483;-90
2022/10/31 11:59:54;;;;;;;10.53;7.03;;;22.20;96.20;;;;;;5073837;28;20557;-88
2022/10/31 12:02:21;;;;;;;9.90;7.40;;;22.00;96.00;;;;;;5088812;28;20436;-89
2022/10/31 12:04:53;;;;;;;13.90;8.80;;;21.90;96.50;;;;;;5084960;28;20455;-88
2022/10/31 12:07:20;;;;;;;16.13;10.23;;;21.80;96.70;;;;;;5075400;28;20448;-89
2022/10/31 12:09:46;;;;;;;11.93;8.40;;;21.50;97.20;;;;;;5133635;22;20493;-88
2022/10/31 12:12:32;;;;;;;8.00;7.20;;;21.40;97.50;;;;;;5123851;28;20450;-88
2022/10/31 12:15:15;;;;;;;13.27;8.57;;;21.20;97.90;;;;;;5115928;28;20440;-89
2022/10/31 12:17:47;;;;;;;13.03;7.50;;;21.00;98.00;;;;;;5113975;28;20450;-89
2022/10/31 12:20:23;;;;;;;9.93;8.37;;;21.20;97.90;;;;;;5114763;28;20433;-88
2022/10/31 12:22:59;;;;;;;17.33;9.30;;;21.70;97.80;;;;;;5113800;28;20441;-89
2022/10/31 12:25:35;;;;;;;10.33;7.40;;;22.10;96.40;;;;;;5113903;28;20829;-88
2022/10/31 12:28:36;;;;;;;14.90;9.47;;;22.30;95.30;;;;;;5113250;28;20469;-89
2022/10/31 12:31:16;;;;;;;16.57;8.10;;;22.40;95.00;;;;;;5114894;28;20469;-88
2022/10/31 12:33:53;;;;;;;13.23;8.47;;;22.10;95.00;;;;;;5114195;28;20448;-88
2022/10/31 12:36:31;;;;;;;17.77;8.30;;;22.10;95.30;;;;;;5114713;28;20445;-88
2022/10/31 12:39:24;;;;;;;14.57;8.70;;;21.90;95.80;;;;;;5114597;28;20474;-88
2022/10/31 12:41:58;;;;;;;10.40;9.30;;;21.60;96.20;;;;;;5133660;28;20475;-88
2022/10/31 12:44:56;;;;;;;16.00;10.37;;;21.50;96.40;;;;;;5120914;28;20438;-89
2022/10/31 12:47:38;;;;;;;12.00;8.50;;;20.90;97.10;;;;;;5093604;28;20541;-88
2022/10/31 12:50:23;;;;;;;12.73;8.40;;;20.50;97.60;;;;;;5117206;28;20945;-88
2022/10/31 12:53:01;;;;;;;15.03;8.80;;;20.30;98.20;;;;;;5119783;28;20426;-88
2022/10/31 12:55:42;;;;;;;19.20;9.00;;;20.10;98.60;;;;;;5139881;27;20437;-88
2022/10/31 12:58:15;;;;;;;10.93;8.40;;;20.00;99.00;;;;;;5123390;27;20452;-88
2022/10/31 13:00:47;;;;;;;10.73;7.70;;;20.00;99.20;;;;;;5134562;27;20454;-88
2022/10/31 13:03:23;;;;;;;10.10;8.40;;;19.90;98.90;;;;;;5139620;27;20501;-88
2022/10/31 13:05:56;;;;;;;15.93;7.53;;;20.00;99.00;;;;;;5119023;28;20453;-88
2022/10/31 13:08:27;;;;;;;10.63;8.93;;;20.00;99.10;;;;;;5116271;28;20478;-88
2022/10/31 13:11:03;;;;;;;9.50;7.97;;;20.00;99.40;;;;;;5118201;28;20580;-88
2022/10/31 13:13:36;;;;;;;11.93;8.60;;;20.00;99.30;;;;;;5112949;28;20441;-89
2022/10/31 13:16:12;;;;;;;9.97;7.57;;;19.90;99.30;;;;;;5107567;28;20449;-88
2022/10/31 13:18:44;;;;;;;10.13;7.80;;;19.90;99.50;;;;;;5107109;28;20457;-88
2022/10/31 13:21:14;;;;;;;10.33;7.60;;;19.80;99.50;;;;;;5110844;28;20969;-87
2022/10/31 13:23:44;;;;;;;14.70;9.00;;;19.90;99.70;;;;;;5113752;28;20463;-87
2022/10/31 13:26:16;;;;;;;14.63;9.00;;;19.90;99.60;;;;;;5110543;28;20470;-88
2022/10/31 13:28:50;;;;;;;13.83;7.13;;;20.00;99.80;;;;;;5105928;28;20970;-88
2022/10/31 13:31:22;;;;;;;13.50;8.50;;;20.00;99.40;;;;;;5107227;28;20467;-88
2022/10/31 13:33:54;;;;;;;10.13;7.97;;;20.00;99.70;;;;;;5107507;28;20530;-87
2022/10/31 13:36:27;;;;;;;16.40;8.10;;;20.00;99.90;;;;;;5109598;28;20491;-88
2022/10/31 13:38:57;;;;;;;9.60;7.20;;;19.90;99.90;;;;;;5107364;28;20466;-88
2022/10/31 13:41:35;;;;;;;11.33;7.03;;;19.90;99.90;;;;;;5128140;28;20448;-87
2022/10/31 13:44:14;;;;;;;8.97;7.17;;;20.00;99.90;;;;;;5107786;28;20469;-88